Time;durP1;ratioP1;P1;durP2;ratioP2;P2;SDS_P1;SDS_P2;PMS_P1;PMS_P2;Temp;Humidity;BMP_temperature;BMP_pressure;BME280_temperature;BME280_humidity;BME280_pressure;Samples;Min_cycle;Max_cycle;Signal;HPM_P1;HPM_P2
2023/05/08 00:02:24;;;;;;;3.80;3.43;;;;;;;17.55;nan;99761.06;5000252;28;20242;-86
2023/05/08 00:04:50;;;;;;;4.30;3.73;;;;;;;17.50;nan;99756.19;5002268;28;20530;-86
2023/05/08 00:07:15;;;;;;;4.67;3.50;;;;;;;17.44;nan;99762.03;5005056;28;20396;-87
2023/05/08 00:09:41;;;;;;;4.30;2.93;;;;;;;17.40;nan;99761.47;5010196;28;20212;-86
2023/05/08 00:12:06;;;;;;;3.83;3.50;;;;;;;17.42;nan;99764.00;5010296;28;20912;-86
2023/05/08 00:14:32;;;;;;;3.60;3.23;;;;;;;17.43;nan;99750.56;5009792;28;20209;-86
2023/05/08 00:16:57;;;;;;;4.70;3.47;;;;;;;17.45;nan;99751.28;5009068;28;20692;-86
2023/05/08 00:19:22;;;;;;;3.33;3.00;;;;;;;17.47;nan;99749.34;5010830;28;20216;-85
2023/05/08 00:21:48;;;;;;;3.03;2.70;;;;;;;17.48;nan;99753.66;5008739;28;20217;-85
2023/05/08 00:24:13;;;;;;;5.00;3.40;;;;;;;17.49;nan;99754.50;5008456;28;20301;-87
2023/05/08 00:26:40;;;;;;;3.50;3.20;;;;;;;17.47;nan;99757.31;5007948;28;20222;-85
2023/05/08 00:29:06;;;;;;;3.30;3.00;;;;;;;17.49;nan;99754.50;5007144;28;20227;-85
2023/05/08 00:31:31;;;;;;;2.90;2.70;;;;;;;17.51;nan;99755.19;5010698;28;20950;-86
2023/05/08 00:33:57;;;;;;;3.20;2.90;;;;;;;17.55;nan;99758.41;5009065;28;20223;-86
2023/05/08 00:36:22;;;;;;;4.45;3.50;;;;;;;17.62;nan;99759.53;5005609;28;20451;-86
2023/05/08 00:38:47;;;;;;;3.93;3.63;;;;;;;17.64;nan;99757.59;5004706;28;20226;-84
2023/05/08 00:41:13;;;;;;;3.57;3.20;;;;;;;17.64;nan;99753.13;5002679;28;20212;-85
2023/05/08 00:43:38;;;;;;;3.10;2.90;;;;;;;17.64;nan;99753.13;5002157;28;20230;-85
2023/05/08 00:46:04;;;;;;;3.83;3.10;;;;;;;17.66;nan;99750.31;5004392;28;20308;-85
2023/05/08 00:48:32;;;;;;;3.40;3.10;;;;;;;17.65;nan;99753.94;5005314;28;20229;-85
2023/05/08 00:51:01;;;;;;;3.13;2.90;;;;;;;17.64;nan;99757.59;5004993;28;20467;-85
2023/05/08 00:53:29;;;;;;;3.13;2.93;;;;;;;17.64;nan;99757.59;5006744;28;20459;-85
2023/05/08 00:55:55;;;;;;;6.40;3.30;;;;;;;17.64;nan;99762.91;5008780;28;20464;-85
2023/05/08 00:58:23;;;;;;;3.63;2.47;;;;;;;17.60;nan;99762.31;5005887;28;20875;-85
2023/05/08 01:00:52;;;;;;;2.80;2.60;;;;;;;17.56;nan;99768.91;5021323;28;20255;-84
2023/05/08 01:03:17;;;;;;;3.33;3.07;;;;;;;17.53;nan;99765.69;5003413;28;20503;-85
2023/05/08 01:05:43;;;;;;;3.80;3.33;;;;;;;17.53;nan;99768.34;5006781;28;20517;-84
2023/05/08 01:08:08;;;;;;;3.53;3.23;;;;;;;17.54;nan;99768.19;5005915;28;20226;-85
2023/05/08 01:10:53;;;;;;;2.60;2.40;;;;;;;17.56;nan;99771.56;5006101;28;20215;-85
2023/05/08 01:13:48;;;;;;;3.50;3.20;;;;;;;17.57;nan;99773.22;5022025;28;20302;-86
2023/05/08 01:16:52;;;;;;;3.00;2.80;;;;;;;17.58;nan;99768.75;5005724;28;20470;-85
2023/05/08 01:19:36;;;;;;;3.27;2.77;;;;;;;17.59;nan;99771.28;4972767;28;21110;-85
2023/05/08 01:22:49;;;;;;;3.57;3.00;;;;;;;17.62;nan;99770.16;5006768;28;20478;-85
2023/05/08 01:25:39;;;;;;;5.43;2.60;;;;;;;17.61;nan;99774.66;5009310;28;21001;-87
2023/05/08 01:28:40;;;;;;;2.07;1.97;;;;;;;17.57;nan;99770.56;5009850;28;20456;-85
2023/05/08 01:31:35;;;;;;;2.47;2.27;;;;;;;17.55;nan;99769.91;5008694;28;20510;-85
2023/05/08 01:34:05;;;;;;;2.40;2.20;;;;;;;17.54;nan;99770.84;5007017;28;20455;-86
2023/05/08 01:36:30;;;;;;;2.63;2.43;;;;;;;17.51;nan;99775.63;5008984;28;20485;-85
2023/05/08 01:39:21;;;;;;;2.10;2.00;;;;;;;17.50;nan;99776.56;5010590;28;20468;-85
2023/05/08 01:42:06;;;;;;;3.30;1.90;;;;;;;17.46;nan;99774.19;5002903;28;20227;-86
2023/05/08 01:47:10;;;;;;;3.10;2.67;;;;;;;17.45;nan;99779.66;4996215;28;21595;-81
2023/05/08 01:49:41;;;;;;;3.07;2.63;;;;;;;17.46;nan;99779.50;5008058;28;21050;-81
2023/05/08 01:52:12;;;;;;;4.27;2.60;;;;;;;17.46;nan;99783.97;5018609;28;20476;-81
2023/05/08 01:54:43;;;;;;;2.50;2.30;;;;;;;17.45;nan;99782.31;5016150;28;20539;-81
2023/05/08 01:57:11;;;;;;;2.40;2.20;;;;;;;17.42;nan;99782.59;5010560;28;20543;-81
2023/05/08 01:59:40;;;;;;;2.88;2.67;;;;;;;17.40;nan;99782.72;4996201;28;20229;-81
2023/05/08 02:02:08;;;;;;;4.20;3.85;;;;;;;17.38;nan;99773.22;4996268;28;20221;-83
2023/05/08 02:04:34;;;;;;;3.28;2.80;;;;;;;17.38;nan;99776.69;5010942;28;20458;-83
2023/05/08 02:07:03;;;;;;;2.88;2.67;;;;;;;17.37;nan;99772.38;4996850;28;20488;-81
2023/05/08 02:09:30;;;;;;;2.70;2.50;;;;;;;17.36;nan;99780.47;5012762;28;20224;-81
2023/05/08 02:11:57;;;;;;;4.22;2.70;;;;;;;17.36;nan;99777.81;4995703;28;20473;-82
2023/05/08 02:14:25;;;;;;;3.00;2.80;;;;;;;17.35;nan;99771.66;4990142;28;20221;-82
2023/05/08 02:16:52;;;;;;;3.13;2.85;;;;;;;17.34;nan;99772.66;5014269;28;20723;-82
2023/05/08 02:19:22;;;;;;;2.80;2.55;;;;;;;17.34;nan;99775.31;5016223;28;20227;-82
2023/05/08 02:21:50;;;;;;;3.20;2.60;;;;;;;17.34;nan;99777.97;4997670;28;20274;-82
2023/05/08 02:24:16;;;;;;;3.70;2.58;;;;;;;17.33;nan;99773.63;4998993;28;20217;-82
2023/05/08 02:26:45;;;;;;;3.33;2.50;;;;;;;17.32;nan;99774.59;4999349;28;20309;-82
2023/05/08 02:29:10;;;;;;;2.70;2.50;;;;;;;17.32;nan;99774.59;4998780;28;20473;-82
2023/05/08 02:31:37;;;;;;;2.30;2.10;;;;;;;17.33;nan;99775.44;4999185;28;20453;-82
2023/05/08 02:34:04;;;;;;;3.35;2.67;;;;;;;17.34;nan;99785.94;4999191;28;20514;-83
2023/05/08 02:36:31;;;;;;;3.05;2.53;;;;;;;17.34;nan;99779.78;4996431;28;20284;-82
2023/05/08 02:38:58;;;;;;;2.58;2.35;;;;;;;17.32;nan;99785.22;5004538;28;20282;-82
2023/05/08 02:41:29;;;;;;;3.23;2.93;;;;;;;17.32;nan;99779.06;5003008;28;20671;-82
2023/05/08 02:43:55;;;;;;;2.95;2.65;;;;;;;17.30;nan;99786.34;5015429;28;20486;-82
2023/05/08 02:46:26;;;;;;;4.05;3.03;;;;;;;17.27;nan;99784.78;5000913;28;20227;-82
2023/05/08 02:49:00;;;;;;;3.17;2.88;;;;;;;17.25;nan;99776.09;4997996;28;20238;-83
2023/05/08 02:51:54;;;;;;;2.88;2.65;;;;;;;17.23;nan;99783.41;4996670;28;20478;-82
2023/05/08 02:54:25;;;;;;;6.75;3.28;;;;;;;17.21;nan;99785.34;4996360;28;20228;-82
2023/05/08 02:57:36;;;;;;;2.83;2.63;;;;;;;17.20;nan;99781.84;4994247;28;20221;-82
2023/05/08 03:00:14;;;;;;;2.90;2.60;;;;;;;17.19;nan;99789.94;4970223;28;20307;-83
2023/05/08 03:02:42;;;;;;;3.88;3.28;;;;;;;17.22;nan;99785.19;4991975;28;20199;-82
2023/05/08 03:05:31;;;;;;;3.38;3.08;;;;;;;17.23;nan;99786.06;4993869;28;20444;-82
2023/05/08 03:08:02;;;;;;;2.72;2.53;;;;;;;17.21;nan;99777.38;5012697;28;20223;-82
2023/05/08 03:10:32;;;;;;;4.30;3.13;;;;;;;17.20;nan;99780.97;5014104;28;20227;-82
2023/05/08 03:13:01;;;;;;;5.97;2.95;;;;;;;17.17;nan;99775.94;4997565;28;20250;-83
2023/05/08 03:15:40;;;;;;;3.88;3.58;;;;;;;17.14;nan;99771.75;5013070;28;20286;-82
2023/05/08 03:18:10;;;;;;;4.10;3.80;;;;;;;17.14;nan;99765.63;4997349;28;20212;-82
2023/05/08 03:20:42;;;;;;;2.33;2.13;;;;;;;17.13;nan;99772.75;5014301;28;21176;-82
2023/05/08 03:23:09;;;;;;;3.20;3.00;;;;;;;17.13;nan;99769.25;4996488;28;20532;-82
2023/05/08 03:25:38;;;;;;;3.40;3.10;;;;;;;17.12;nan;99770.22;4996108;28;20236;-82
2023/05/08 03:28:05;;;;;;;3.30;3.00;;;;;;;17.10;nan;99765.06;4997524;28;20219;-82
2023/05/08 03:30:35;;;;;;;3.90;3.22;;;;;;;17.09;nan;99766.00;5009383;28;20443;-82
2023/05/08 03:33:07;;;;;;;3.03;2.73;;;;;;;17.10;nan;99766.88;4997074;28;20607;-83
2023/05/08 03:35:35;;;;;;;2.90;2.58;;;;;;;17.10;nan;99770.38;5013943;28;20466;-82
2023/05/08 03:38:02;;;;;;;3.40;2.80;;;;;;;17.12;nan;99772.88;4982078;28;20219;-82
2023/05/08 03:40:28;;;;;;;3.10;2.90;;;;;;;17.13;nan;99771.91;4995764;28;20790;-82
2023/05/08 03:42:54;;;;;;;3.30;3.00;;;;;;;17.12;nan;99765.75;4997553;28;20223;-82
2023/05/08 03:45:22;;;;;;;3.47;3.17;;;;;;;17.11;nan;99765.88;4996643;28;20275;-83
2023/05/08 03:47:48;;;;;;;5.88;2.50;;;;;;;17.11;nan;99777.34;5006918;28;20213;-82
2023/05/08 03:50:14;;;;;;;2.80;2.60;;;;;;;17.09;nan;99768.66;4996399;28;20228;-82
2023/05/08 03:52:41;;;;;;;3.27;3.07;;;;;;;17.10;nan;99778.31;5006097;28;20204;-82
2023/05/08 03:55:08;;;;;;;2.73;2.53;;;;;;;17.09;nan;99781.09;5009267;28;20855;-82
2023/05/08 03:57:44;;;;;;;3.50;3.20;;;;;;;17.08;nan;99785.56;4995179;28;21029;-82
2023/05/08 04:00:27;;;;;;;2.90;2.65;;;;;;;17.09;nan;99789.06;5010005;28;21018;-82
2023/05/08 04:03:10;;;;;;;3.20;3.00;;;;;;;17.07;nan;99786.56;4994514;28;20315;-82
2023/05/08 04:05:50;;;;;;;4.20;3.80;;;;;;;17.09;nan;99781.94;5011311;28;20642;-82
2023/05/08 04:08:21;;;;;;;4.03;3.65;;;;;;;17.09;nan;99781.94;4992286;28;20218;-82
2023/05/08 04:10:56;;;;;;;3.90;3.60;;;;;;;17.10;nan;99788.09;4993369;28;20237;-82
2023/05/08 04:13:26;;;;;;;3.65;3.35;;;;;;;17.12;nan;99791.44;5002712;28;20460;-82
2023/05/08 04:15:58;;;;;;;3.83;3.53;;;;;;;17.12;nan;99794.97;4994191;28;20239;-82
2023/05/08 04:18:28;;;;;;;4.10;3.70;;;;;;;17.13;nan;99791.31;4992571;28;20241;-82
2023/05/08 04:20:56;;;;;;;3.42;3.10;;;;;;;17.14;nan;99793.00;4992949;28;20216;-82
2023/05/08 04:23:23;;;;;;;3.40;3.10;;;;;;;17.17;nan;99802.50;5009490;28;20247;-82
2023/05/08 04:25:51;;;;;;;3.15;2.85;;;;;;;17.17;nan;99800.69;4994561;28;20225;-82
2023/05/08 04:28:18;;;;;;;3.55;3.30;;;;;;;17.17;nan;99805.16;4991907;28;20223;-82
2023/05/08 04:30:44;;;;;;;4.00;3.67;;;;;;;17.19;nan;99800.56;4993892;28;20246;-82
2023/05/08 04:33:11;;;;;;;5.43;4.05;;;;;;;17.17;nan;99798.03;4993293;28;20214;-82
2023/05/08 04:35:37;;;;;;;5.53;3.83;;;;;;;17.19;nan;99804.03;5008319;28;20988;-82
2023/05/08 04:38:02;;;;;;;4.20;3.40;;;;;;;17.17;nan;99797.19;4992722;28;20196;-81
2023/05/08 04:40:28;;;;;;;3.27;2.97;;;;;;;17.15;nan;99801.81;5007324;28;20212;-82
2023/05/08 04:42:54;;;;;;;3.23;2.80;;;;;;;17.14;nan;99808.09;4991287;28;20233;-82
2023/05/08 04:45:21;;;;;;;4.17;3.83;;;;;;;17.12;nan;99812.66;4991097;28;20239;-81
2023/05/08 04:47:46;;;;;;;4.53;4.10;;;;;;;17.12;nan;99812.66;5008125;28;21142;-82
2023/05/08 04:50:11;;;;;;;3.53;3.23;;;;;;;17.12;nan;99816.19;5008000;28;20216;-82
2023/05/08 04:52:37;;;;;;;3.63;3.37;;;;;;;17.13;nan;99814.38;5008763;28;20213;-82
2023/05/08 04:55:02;;;;;;;4.03;3.73;;;;;;;17.13;nan;99811.72;4991059;28;20225;-82
2023/05/08 04:57:32;;;;;;;4.40;3.92;;;;;;;17.12;nan;99815.31;4992989;28;20216;-82
2023/05/08 04:59:57;;;;;;;3.60;3.35;;;;;;;17.12;nan;99821.50;4993694;28;20227;-82
2023/05/08 05:02:24;;;;;;;4.30;3.70;;;;;;;17.15;nan;99823.06;4994621;28;20267;-82
2023/05/08 05:04:50;;;;;;;3.70;3.10;;;;;;;17.16;nan;99812.28;5011665;28;20511;-81
2023/05/08 05:07:15;;;;;;;5.30;3.67;;;;;;;17.16;nan;99819.41;4993139;28;20208;-82
2023/05/08 05:09:41;;;;;;;3.90;3.30;;;;;;;17.16;nan;99822.91;4995686;28;20483;-82
2023/05/08 05:12:07;;;;;;;3.63;3.23;;;;;;;17.18;nan;99826.25;5015069;28;20240;-81
2023/05/08 05:14:32;;;;;;;3.60;3.30;;;;;;;17.19;nan;99827.09;4997899;28;20258;-82
2023/05/08 05:16:58;;;;;;;4.67;4.30;;;;;;;17.21;nan;99823.34;4997773;28;20321;-82
2023/05/08 05:19:24;;;;;;;3.77;3.47;;;;;;;17.22;nan;99826.81;5013891;28;20628;-82
2023/05/08 05:21:49;;;;;;;5.60;4.43;;;;;;;17.22;nan;99822.34;4994813;28;20229;-82
2023/05/08 05:24:15;;;;;;;3.90;3.60;;;;;;;17.23;nan;99829.34;5013992;28;20715;-82
2023/05/08 05:26:41;;;;;;;3.97;3.67;;;;;;;17.25;nan;99829.22;5011186;28;20301;-82
2023/05/08 05:29:07;;;;;;;5.93;3.65;;;;;;;17.26;nan;99833.56;4992538;28;20213;-83
2023/05/08 05:31:33;;;;;;;4.13;3.67;;;;;;;17.27;nan;99834.41;4994251;28;20207;-82
2023/05/08 05:33:58;;;;;;;4.00;3.70;;;;;;;17.26;nan;99836.22;4993523;28;20541;-82
2023/05/08 05:36:24;;;;;;;3.67;3.37;;;;;;;17.28;nan;99838.72;4992927;28;20221;-81
2023/05/08 05:38:49;;;;;;;4.13;3.70;;;;;;;17.28;nan;99838.72;4992321;28;20220;-82
2023/05/08 05:41:15;;;;;;;4.90;3.97;;;;;;;17.31;nan;99841.09;4997336;28;20301;-82
2023/05/08 05:43:40;;;;;;;4.00;3.70;;;;;;;17.32;nan;99837.50;4995700;28;20716;-82
2023/05/08 05:46:07;;;;;;;3.73;3.43;;;;;;;17.33;nan;99841.81;5012850;28;20246;-82
2023/05/08 05:48:34;;;;;;;4.63;4.22;;;;;;;17.34;nan;99847.00;4993472;28;20202;-82
2023/05/08 05:50:59;;;;;;;4.90;3.70;;;;;;;17.37;nan;99851.19;4993037;28;20254;-82
2023/05/08 05:53:25;;;;;;;3.97;3.67;;;;;;;17.39;nan;99851.88;4992697;28;21397;-82
2023/05/08 05:55:51;;;;;;;5.33;3.70;;;;;;;17.39;nan;99855.41;4994972;28;20272;-82
2023/05/08 05:58:18;;;;;;;4.20;3.45;;;;;;;17.42;nan;99848.97;4993225;28;20464;-83
2023/05/08 06:00:43;;;;;;;4.55;3.60;;;;;;;17.44;nan;99845.22;4992307;28;20213;-83
2023/05/08 06:03:12;;;;;;;4.40;3.77;;;;;;;17.46;nan;99848.56;5009175;28;20661;-82
2023/05/08 06:05:39;;;;;;;3.95;3.53;;;;;;;17.50;nan;99841.19;5010465;28;20674;-82
2023/05/08 06:08:05;;;;;;;5.03;4.53;;;;;;;17.54;nan;99853.19;5008699;28;20741;-82
2023/05/08 06:10:30;;;;;;;4.70;4.40;;;;;;;17.58;nan;99849.31;5006467;28;20475;-82
2023/05/08 06:12:56;;;;;;;4.10;3.80;;;;;;;17.63;nan;99856.84;5007817;28;20495;-82
2023/05/08 06:15:22;;;;;;;5.03;4.13;;;;;;;17.67;nan;99845.81;4988411;28;20307;-82
2023/05/08 06:17:47;;;;;;;3.77;3.47;;;;;;;17.71;nan;99851.69;4988827;28;20239;-82
2023/05/08 06:20:13;;;;;;;4.43;4.00;;;;;;;17.76;nan;99851.28;4992873;28;20314;-82
2023/05/08 06:22:40;;;;;;;5.47;4.20;;;;;;;17.77;nan;99852.94;4997080;28;20216;-82
2023/05/08 06:25:07;;;;;;;6.38;5.25;;;;;;;17.81;nan;99860.53;5008666;28;20219;-82
2023/05/08 06:27:33;;;;;;;8.03;6.60;;;;;;;17.84;nan;99860.25;5008889;28;20331;-81
2023/05/08 06:29:59;;;;;;;5.17;4.60;;;;;;;17.91;nan;99852.59;5009349;28;20512;-82
2023/05/08 06:32:24;;;;;;;4.60;4.03;;;;;;;17.98;nan;99852.88;5010410;28;20443;-81
2023/05/08 06:34:49;;;;;;;5.38;4.25;;;;;;;18.05;nan;99860.16;5012041;28;20446;-82
2023/05/08 06:37:15;;;;;;;4.00;3.60;;;;;;;18.12;nan;99855.13;5010497;28;20210;-82
2023/05/08 06:39:40;;;;;;;4.07;3.70;;;;;;;18.22;nan;99855.09;5008393;28;20227;-82
2023/05/08 06:42:06;;;;;;;3.57;3.27;;;;;;;18.31;nan;99852.47;5011450;28;20215;-82
2023/05/08 06:44:36;;;;;;;4.83;4.20;;;;;;;18.43;nan;99844.31;4995281;28;20298;-82
2023/05/08 06:47:01;;;;;;;6.13;3.70;;;;;;;18.53;nan;99845.16;5013024;28;20635;-82
2023/05/08 06:49:26;;;;;;;6.23;3.70;;;;;;;18.62;nan;99843.44;5011105;28;20213;-82
2023/05/08 06:51:52;;;;;;;4.50;3.70;;;;;;;18.71;nan;99850.56;5005808;28;20217;-82
2023/05/08 06:54:17;;;;;;;4.40;3.30;;;;;;;18.75;nan;99846.66;5009327;28;20208;-82
2023/05/08 06:56:43;;;;;;;4.10;3.70;;;;;;;18.80;nan;99852.41;5010735;28;20214;-81
2023/05/08 06:59:09;;;;;;;3.77;3.40;;;;;;;18.84;nan;99852.94;5008614;28;20518;-82
2023/05/08 07:01:36;;;;;;;3.77;3.47;;;;;;;18.89;nan;99856.00;5006392;28;20222;-82
2023/05/08 07:04:01;;;;;;;3.97;3.50;;;;;;;18.94;nan;99851.94;5005491;28;20267;-82
2023/05/08 07:06:26;;;;;;;3.90;3.60;;;;;;;18.96;nan;99857.13;5007387;28;20503;-82
2023/05/08 07:08:52;;;;;;;4.33;3.93;;;;;;;18.93;nan;99852.06;5004628;28;21185;-82
2023/05/08 07:11:17;;;;;;;4.00;3.57;;;;;;;18.88;nan;99849.84;5006277;28;20218;-82
2023/05/08 07:13:44;;;;;;;3.20;3.00;;;;;;;18.83;nan;99860.09;5004371;28;20328;-82
2023/05/08 07:16:10;;;;;;;3.83;3.53;;;;;;;18.81;nan;99864.72;5004571;28;20697;-82
2023/05/08 07:18:36;;;;;;;4.60;4.20;;;;;;;18.80;nan;99860.38;5002915;28;20473;-82
2023/05/08 07:21:02;;;;;;;3.27;3.07;;;;;;;18.79;nan;99862.22;5002121;28;20518;-82
2023/05/08 07:23:27;;;;;;;4.10;3.80;;;;;;;18.75;nan;99871.44;5006731;28;20220;-82
2023/05/08 07:25:53;;;;;;;3.83;3.53;;;;;;;18.76;nan;99866.97;5012233;28;20226;-81
2023/05/08 07:28:18;;;;;;;3.70;3.40;;;;;;;18.77;nan;99866.81;5010098;28;20805;-81
2023/05/08 07:30:44;;;;;;;3.83;3.30;;;;;;;18.75;nan;99865.28;5009060;28;20225;-81
2023/05/08 07:33:09;;;;;;;5.87;4.20;;;;;;;18.75;nan;99868.78;5011248;28;20244;-82
2023/05/08 07:35:38;;;;;;;3.60;3.30;;;;;;;18.77;nan;99866.81;5011459;28;20218;-81
2023/05/08 07:38:04;;;;;;;4.17;3.67;;;;;;;18.79;nan;99864.88;5010138;28;20313;-82
2023/05/08 07:40:29;;;;;;;3.53;3.23;;;;;;;18.82;nan;99868.19;5009898;28;20466;-82
2023/05/08 07:42:55;;;;;;;4.73;3.77;;;;;;;18.88;nan;99870.31;5010959;28;20208;-81
2023/05/08 07:45:20;;;;;;;5.53;5.03;;;;;;;18.91;nan;99862.88;5010922;28;20272;-82
2023/05/08 07:47:54;;;;;;;5.00;4.20;;;;;;;18.92;nan;99867.19;5007969;28;20239;-82
2023/05/08 07:50:20;;;;;;;4.93;4.47;;;;;;;18.90;nan;99869.19;5009987;28;21060;-82
2023/05/08 07:52:46;;;;;;;7.13;3.77;;;;;;;18.93;nan;99860.03;5012700;28;20468;-83
2023/05/08 07:55:12;;;;;;;4.23;3.83;;;;;;;18.99;nan;99870.13;5010543;28;20477;-83
2023/05/08 07:57:39;;;;;;;5.13;4.63;;;;;;;19.03;nan;99860.84;5009735;28;20222;-82
2023/05/08 08:00:06;;;;;;;4.70;4.30;;;;;;;19.07;nan;99862.25;5009463;28;20521;-83
2023/05/08 08:02:39;;;;;;;4.60;4.20;;;;;;;19.16;nan;99858.69;5011151;28;20987;-82
2023/05/08 08:05:05;;;;;;;5.10;4.60;;;;;;;19.30;nan;99859.22;5010471;28;20465;-83
2023/05/08 08:07:34;;;;;;;5.57;5.00;;;;;;;19.47;nan;99866.44;5006696;28;20205;-82
2023/05/08 08:10:00;;;;;;;4.60;4.30;;;;;;;19.60;nan;99856.22;5007111;28;20452;-83
2023/05/08 08:12:26;;;;;;;3.93;3.53;;;;;;;19.71;nan;99865.03;5005005;28;21013;-83
2023/05/08 08:14:51;;;;;;;3.67;3.37;;;;;;;19.75;nan;99863.75;5006423;28;20566;-83
2023/05/08 08:17:17;;;;;;;3.97;3.67;;;;;;;19.82;nan;99865.69;5005683;28;20576;-83
2023/05/08 08:19:43;;;;;;;4.80;4.30;;;;;;;19.89;nan;99863.22;5007570;28;20225;-83
2023/05/08 08:22:08;;;;;;;5.13;4.63;;;;;;;19.94;nan;99865.44;5005418;28;20224;-83
2023/05/08 08:24:34;;;;;;;4.93;4.43;;;;;;;19.94;nan;99868.94;5005987;28;20222;-83
2023/05/08 08:26:59;;;;;;;4.90;4.40;;;;;;;19.96;nan;99864.31;5005157;28;20214;-83
2023/05/08 08:29:25;;;;;;;5.93;4.40;;;;;;;19.99;nan;99868.50;5003903;28;20556;-83
2023/05/08 08:31:50;;;;;;;4.20;3.90;;;;;;;20.03;nan;99875.19;5006195;28;20229;-84
2023/05/08 08:34:16;;;;;;;4.30;3.90;;;;;;;20.05;nan;99866.06;4988816;28;20992;-83
2023/05/08 08:36:41;;;;;;;7.63;4.40;;;;;;;20.02;nan;99866.38;5002946;28;20918;-84
2023/05/08 08:39:07;;;;;;;3.53;3.23;;;;;;;20.04;nan;99863.56;5005480;28;20202;-83
2023/05/08 08:41:32;;;;;;;4.17;3.27;;;;;;;20.08;nan;99860.41;5005665;28;20201;-83
2023/05/08 08:43:58;;;;;;;4.03;3.73;;;;;;;20.15;nan;99865.16;5005315;28;20239;-83
2023/05/08 08:46:25;;;;;;;3.47;3.17;;;;;;;20.25;nan;99860.56;5004929;28;20253;-83
2023/05/08 08:48:53;;;;;;;3.60;3.30;;;;;;;20.34;nan;99859.66;5004295;28;20221;-85
2023/05/08 08:51:27;;;;;;;3.87;3.57;;;;;;;20.45;nan;99861.25;5005828;28;20428;-83
2023/05/08 08:54:11;;;;;;;4.00;3.57;;;;;;;20.53;nan;99864.81;5004554;28;20572;-83
2023/05/08 08:56:38;;;;;;;3.37;3.07;;;;;;;20.45;nan;99858.56;5005987;28;20472;-83
2023/05/08 08:59:04;;;;;;;3.47;3.17;;;;;;;20.36;nan;99862.16;5005588;28;20472;-82
2023/05/08 09:01:34;;;;;;;4.43;3.90;;;;;;;20.35;nan;99871.97;5004917;28;20465;-83
2023/05/08 09:04:00;;;;;;;3.17;2.90;;;;;;;20.37;nan;99875.34;5005542;28;20484;-83
2023/05/08 09:06:26;;;;;;;4.10;3.70;;;;;;;20.40;nan;99866.19;5006790;28;20555;-83
2023/05/08 09:08:55;;;;;;;3.33;3.03;;;;;;;20.42;nan;99866.88;5005275;28;20480;-83
2023/05/08 09:11:21;;;;;;;4.20;3.53;;;;;;;20.36;nan;99870.16;5001584;28;20292;-84
2023/05/08 09:13:46;;;;;;;4.60;4.00;;;;;;;20.32;nan;99872.31;5000435;28;20475;-82
2023/05/08 09:16:12;;;;;;;4.13;3.73;;;;;;;20.21;nan;99868.03;4998615;28;20230;-82
2023/05/08 09:18:37;;;;;;;5.43;3.60;;;;;;;20.16;nan;99864.16;5000344;28;20217;-82
2023/05/08 09:21:05;;;;;;;3.80;3.50;;;;;;;20.16;nan;99866.81;4998720;28;20213;-83
2023/05/08 09:23:30;;;;;;;3.10;2.80;;;;;;;20.23;nan;99873.22;4981765;28;20227;-82
2023/05/08 09:25:56;;;;;;;3.20;2.90;;;;;;;20.37;nan;99863.84;4996420;28;21224;-83
2023/05/08 09:28:23;;;;;;;4.40;4.10;;;;;;;20.49;nan;99868.75;4997435;28;20314;-82
2023/05/08 09:30:57;;;;;;;3.50;3.17;;;;;;;20.60;nan;99872.22;4996517;28;20222;-82
2023/05/08 09:33:25;;;;;;;3.60;3.30;;;;;;;20.67;nan;99865.25;5001709;28;20461;-83
2023/05/08 09:35:51;;;;;;;3.70;3.40;;;;;;;20.78;nan;99862.31;4998424;28;20451;-82
2023/05/08 09:38:46;;;;;;;4.17;3.77;;;;;;;20.90;nan;99870.91;5000021;28;20217;-82
2023/05/08 09:41:14;;;;;;;4.10;3.80;;;;;;;20.94;nan;99862.41;4944459;28;20464;-83
2023/05/08 09:43:41;;;;;;;4.10;3.80;;;;;;;21.02;nan;99874.16;5000233;28;20491;-82
2023/05/08 09:46:22;;;;;;;4.90;3.23;;;;;;;21.08;nan;99871.69;5003350;28;20528;-82
2023/05/08 09:48:48;;;;;;;3.30;3.10;;;;;;;21.11;nan;99878.53;5000969;28;20478;-84
2023/05/08 09:51:14;;;;;;;5.10;4.10;;;;;;;21.07;nan;99871.84;5004219;28;20462;-82
2023/05/08 09:53:40;;;;;;;4.70;3.67;;;;;;;21.05;nan;99882.69;5003038;28;20463;-82
2023/05/08 09:56:05;;;;;;;3.63;3.33;;;;;;;21.06;nan;99878.16;5003099;28;20244;-82
2023/05/08 09:58:41;;;;;;;3.77;3.43;;;;;;;21.10;nan;99876.88;5002072;28;20242;-83
2023/05/08 10:01:25;;;;;;;4.03;3.60;;;;;;;21.15;nan;99871.91;5002215;28;20482;-81
2023/05/08 10:03:51;;;;;;;3.70;3.30;;;;;;;21.25;nan;99871.75;5002851;28;20542;-82
2023/05/08 10:06:16;;;;;;;3.92;3.63;;;;;;;21.26;nan;99874.28;5001142;28;20928;-82
2023/05/08 10:08:42;;;;;;;4.47;4.10;;;;;;;21.31;nan;99874.63;5001201;28;20211;-83
2023/05/08 10:11:18;;;;;;;3.67;3.40;;;;;;;21.55;nan;99873.06;5001531;28;20234;-84
2023/05/08 10:13:45;;;;;;;3.23;2.93;;;;;;;21.73;nan;99884.50;5000180;28;20264;-82
2023/05/08 10:16:15;;;;;;;3.27;2.97;;;;;;;21.75;nan;99876.31;4998796;28;20631;-83
2023/05/08 10:18:55;;;;;;;4.10;3.67;;;;;;;21.81;nan;99875.66;5000251;28;21110;-82
2023/05/08 10:21:23;;;;;;;3.33;3.03;;;;;;;21.79;nan;99878.53;4999761;28;20440;-83
2023/05/08 10:23:54;;;;;;;3.43;3.13;;;;;;;21.87;nan;99867.84;5002529;28;20475;-82
2023/05/08 10:26:26;;;;;;;3.50;2.70;;;;;;;22.00;nan;99871.84;5007426;28;20470;-82
2023/05/08 10:28:57;;;;;;;3.90;3.07;;;;;;;22.14;nan;99865.00;5007781;28;20507;-84
2023/05/08 10:31:32;;;;;;;3.60;3.30;;;;;;;22.27;nan;99860.88;5009145;28;20465;-83
2023/05/08 10:34:00;;;;;;;3.53;3.20;;;;;;;22.53;nan;99855.34;5007871;28;20491;-83
2023/05/08 10:36:27;;;;;;;3.33;3.03;;;;;;;22.97;nan;99854.13;5005077;28;20471;-83
2023/05/08 10:38:53;;;;;;;3.20;2.83;;;;;;;23.37;nan;99849.63;5006339;28;21099;-83
2023/05/08 10:41:19;;;;;;;3.03;2.83;;;;;;;23.53;nan;99846.03;5003119;28;20466;-82
2023/05/08 10:43:45;;;;;;;3.33;3.03;;;;;;;23.55;nan;99844.84;5005009;28;20456;-83
2023/05/08 10:46:39;;;;;;;2.57;2.37;;;;;;;23.67;nan;99842.59;5010123;28;20486;-82
2023/05/08 10:49:41;;;;;;;2.80;2.00;;;;;;;23.71;nan;99835.03;5012911;28;20458;-82
2023/05/08 10:52:22;;;;;;;2.03;1.93;;;;;;;23.71;nan;99827.88;5013537;28;20538;-84
2023/05/08 10:55:13;;;;;;;1.90;1.80;;;;;;;23.89;nan;99821.38;5013686;28;20488;-82
2023/05/08 10:57:38;;;;;;;2.10;1.90;;;;;;;24.05;nan;99830.13;5009969;28;20541;-83
2023/05/08 11:00:04;;;;;;;2.27;1.90;;;;;;;24.23;nan;99826.31;5012916;28;20608;-83
2023/05/08 11:02:31;;;;;;;2.57;1.70;;;;;;;24.38;nan;99824.47;5014354;28;20204;-83
2023/05/08 11:05:17;;;;;;;1.60;1.50;;;;;;;24.49;nan;99820.56;5012226;28;20486;-83
2023/05/08 11:07:56;;;;;;;2.07;1.90;;;;;;;24.46;nan;99821.75;5014024;28;20441;-83
2023/05/08 11:10:29;;;;;;;2.43;2.23;;;;;;;24.48;nan;99819.72;5013177;28;20490;-82
2023/05/08 11:12:55;;;;;;;3.00;1.90;;;;;;;24.37;nan;99816.63;5010657;28;20473;-82
2023/05/08 11:15:38;;;;;;;2.07;1.97;;;;;;;24.42;nan;99816.91;5008571;28;20466;-83
2023/05/08 11:18:15;;;;;;;2.07;1.90;;;;;;;24.53;nan;99811.13;5009183;28;20490;-82
2023/05/08 11:20:53;;;;;;;1.80;1.40;;;;;;;24.68;nan;99808.44;5008471;28;21045;-82
2023/05/08 11:23:22;;;;;;;1.93;1.80;;;;;;;24.85;nan;99807.25;5009721;28;20616;-82
2023/05/08 11:25:57;;;;;;;2.90;2.13;;;;;;;24.92;nan;99813.56;5013247;28;20470;-82
2023/05/08 11:28:22;;;;;;;3.00;2.43;;;;;;;24.76;nan;99808.34;5012904;28;20462;-82
2023/05/08 11:30:52;;;;;;;2.53;2.33;;;;;;;24.60;nan;99800.47;5013501;28;20464;-82
2023/05/08 11:33:18;;;;;;;2.20;2.00;;;;;;;24.37;nan;99804.03;5012340;28;20181;-82
2023/05/08 11:35:54;;;;;;;2.60;2.40;;;;;;;24.25;nan;99792.06;5011646;28;20452;-83
2023/05/08 11:38:34;;;;;;;3.27;2.73;;;;;;;24.31;nan;99798.56;5014130;28;20208;-82
2023/05/08 11:41:04;;;;;;;2.53;1.67;;;;;;;24.49;nan;99797.25;5012138;28;20434;-82
2023/05/08 11:43:32;;;;;;;2.60;2.40;;;;;;;24.60;nan;99803.16;5014044;28;20481;-82
2023/05/08 11:46:03;;;;;;;2.30;2.10;;;;;;;24.59;nan;99802.34;5009798;28;20505;-83
2023/05/08 11:48:33;;;;;;;2.87;1.90;;;;;;;24.52;nan;99793.38;5006501;28;20460;-83
2023/05/08 11:50:59;;;;;;;1.70;1.60;;;;;;;24.40;nan;99798.28;5006853;28;20459;-82
2023/05/08 11:53:25;;;;;;;1.50;1.40;;;;;;;24.28;nan;99795.22;5010472;28;20445;-82
2023/05/08 11:55:52;;;;;;;2.20;2.10;;;;;;;24.20;nan;99795.28;4990217;28;20535;-83
2023/05/08 11:58:18;;;;;;;2.33;2.13;;;;;;;24.19;nan;99792.78;5004179;28;20534;-83
2023/05/08 12:00:45;;;;;;;2.23;2.03;;;;;;;24.21;nan;99782.72;5008087;28;20955;-82
2023/05/08 12:03:15;;;;;;;3.40;2.10;;;;;;;24.29;nan;99788.81;5006174;28;20215;-83
2023/05/08 12:05:41;;;;;;;2.90;2.30;;;;;;;24.35;nan;99797.16;5007403;28;20506;-83